createdAt,value
2023-01-20T06:00:51.057Z,40.53
2023-01-20T06:05:59.093Z,38.90
2023-01-20T06:11:01.842Z,30.50
2023-01-20T06:16:07.127Z,32.77
2023-01-20T06:21:09.816Z,32.27
2023-01-20T06:26:16.223Z,31.40
2023-01-20T06:31:18.758Z,37.30
2023-01-20T06:36:21.217Z,34.20
2023-01-20T06:41:24.058Z,27.63
2023-01-20T06:46:26.598Z,30.27
2023-01-20T06:51:30.886Z,29.73
2023-01-20T06:56:33.393Z,36.00
2023-01-20T07:01:36.012Z,29.73
2023-01-20T07:06:40.019Z,25.00
2023-01-20T07:11:42.429Z,25.00
2023-01-20T07:16:45.952Z,39.27
2023-01-20T07:21:48.486Z,28.47
2023-01-20T07:26:53.530Z,33.27
2023-01-20T07:31:56.199Z,39.33
2023-01-20T07:37:01.947Z,51.20
2023-01-20T07:42:04.469Z,26.53
2023-01-20T07:47:06.973Z,30.70
2023-01-20T07:52:11.920Z,31.83
2023-01-20T07:57:14.357Z,26.97
2023-01-20T08:02:16.873Z,25.03
2023-01-20T08:07:19.363Z,26.87
2023-01-20T08:12:22.586Z,41.47
2023-01-20T08:17:25.040Z,24.53
2023-01-20T08:22:27.378Z,25.00
2023-01-20T08:27:29.643Z,25.43
2023-01-20T08:32:31.948Z,25.97
2023-01-20T08:37:37.496Z,24.87
2023-01-20T08:42:40.193Z,23.23
2023-01-20T08:47:45.908Z,24.50
2023-01-20T08:52:48.319Z,24.90
2023-01-20T08:57:50.649Z,24.33
2023-01-20T09:02:53.015Z,24.33
2023-01-20T09:07:55.426Z,26.20
2023-01-20T09:12:58.043Z,24.83
2023-01-20T09:18:00.460Z,30.83
2023-01-20T09:23:03.204Z,35.90
2023-01-20T09:28:06.717Z,31.43
2023-01-20T09:33:13.341Z,29.73
2023-01-20T09:38:34.562Z,41.00
2023-01-20T09:44:25.962Z,41.13
2023-01-20T09:50:26.776Z,30.47
2023-01-20T09:55:52.233Z,25.33
2023-01-20T10:01:24.529Z,24.83
2023-01-20T10:06:37.214Z,26.40
2023-01-20T10:11:43.614Z,26.40
2023-01-20T10:16:54.578Z,25.90
2023-01-20T10:22:12.385Z,26.00
2023-01-20T10:27:18.094Z,26.77
2023-01-20T10:32:39.278Z,27.93
2023-01-20T10:37:53.684Z,27.27
2023-01-20T10:43:18.409Z,26.73
2023-01-20T10:48:22.782Z,26.80
2023-01-20T10:54:17.268Z,27.10
2023-01-20T10:59:32.165Z,25.57
2023-01-20T11:04:37.390Z,25.63
2023-01-20T11:09:49.735Z,27.57
2023-01-20T11:21:05.414Z,27.83
2023-01-20T11:26:18.743Z,27.43
2023-01-20T11:31:22.919Z,25.90
2023-01-20T11:36:26.972Z,26.63
2023-01-20T11:41:31.186Z,26.47
2023-01-20T11:46:38.021Z,27.60
2023-01-20T11:51:48.712Z,27.10
2023-01-20T11:57:07.663Z,28.00
2023-01-20T12:02:10.106Z,28.17
2023-01-20T12:07:33.436Z,29.60
2023-01-20T12:12:38.764Z,35.13
2023-01-20T12:18:01.121Z,28.43
2023-01-20T12:23:21.344Z,28.13
2023-01-20T12:28:47.755Z,25.10
2023-01-20T12:34:00.282Z,25.63
2023-01-20T12:39:36.130Z,25.90
2023-01-20T12:45:03.952Z,25.17
2023-01-20T12:50:15.097Z,24.43
2023-01-20T12:55:23.368Z,25.63
2023-01-20T13:00:46.763Z,26.40
2023-01-20T13:06:13.452Z,26.37
2023-01-20T13:11:41.580Z,27.50
2023-01-20T13:17:23.254Z,28.70
2023-01-20T13:22:26.286Z,28.87
2023-01-20T13:27:33.212Z,29.13
2023-01-20T13:32:45.223Z,28.10
2023-01-20T13:37:51.745Z,27.03
2023-01-20T13:42:54.760Z,25.77
2023-01-20T13:48:06.231Z,25.47
2023-01-20T13:53:23.513Z,25.43
2023-01-20T13:58:43.317Z,24.27
2023-01-20T14:04:05.431Z,26.97
2023-01-20T14:09:18.863Z,25.97
2023-01-20T14:14:24.864Z,26.50
2023-01-20T14:19:32.498Z,27.30
2023-01-20T14:24:38.093Z,27.50
2023-01-20T14:29:40.448Z,28.57
2023-01-20T14:34:43.558Z,27.87
2023-01-20T14:39:49.757Z,33.57
2023-01-20T14:44:54.064Z,32.57
2023-01-20T14:49:57.155Z,34.00
2023-01-20T14:54:59.766Z,32.73
2023-01-20T15:00:05.205Z,33.77
2023-01-20T15:05:30.726Z,31.87
2023-01-20T15:10:33.271Z,31.77
2023-01-20T15:15:35.757Z,29.33
2023-01-20T15:20:50.455Z,29.03
2023-01-20T15:25:53.613Z,31.77
2023-01-20T15:30:58.520Z,32.10
2023-01-20T15:36:01.227Z,32.03
2023-01-20T15:41:03.652Z,32.10
2023-01-20T15:46:15.142Z,32.77
2023-01-20T15:51:19.792Z,34.07
2023-01-20T15:56:30.703Z,33.70
2023-01-20T16:01:33.309Z,38.83
2023-01-20T16:06:37.438Z,36.07
2023-01-20T16:11:42.139Z,34.77
2023-01-20T16:16:44.523Z,33.93
2023-01-20T16:21:46.829Z,33.97
2023-01-20T16:26:49.149Z,33.30
2023-01-20T16:31:51.585Z,33.77
2023-01-20T16:36:54.015Z,28.80
2023-01-20T16:41:56.322Z,29.23
2023-01-20T16:47:00.201Z,30.30
2023-01-20T16:52:03.157Z,29.90
2023-01-20T16:57:05.535Z,30.10
2023-01-20T17:02:11.009Z,30.77
2023-01-20T17:07:13.390Z,30.60
2023-01-20T17:12:16.781Z,28.47
2023-01-20T17:17:19.137Z,28.13
2023-01-20T17:22:21.376Z,27.30
2023-01-20T17:27:23.866Z,25.97
2023-01-20T17:32:26.142Z,25.60
2023-01-20T17:37:28.567Z,24.40
2023-01-20T17:42:30.819Z,25.20
2023-01-20T17:47:33.112Z,22.30
2023-01-20T17:52:35.760Z,22.40
2023-01-20T17:57:38.020Z,22.37
2023-01-20T18:02:40.351Z,20.70
2023-01-20T18:07:42.631Z,20.47
2023-01-20T18:12:44.939Z,19.80
2023-01-20T18:17:47.313Z,21.43
2023-01-20T18:22:50.409Z,20.03
2023-01-20T18:27:52.644Z,20.13
2023-01-20T18:32:57.500Z,20.17
2023-01-20T18:38:01.969Z,22.67
2023-01-20T18:43:04.261Z,22.13
2023-01-20T18:48:06.702Z,22.03
2023-01-20T18:53:09.568Z,20.13
2023-01-20T18:58:12.892Z,20.97
2023-01-20T19:03:15.199Z,22.53
2023-01-20T19:08:17.531Z,20.40
2023-01-20T19:13:19.824Z,20.57
2023-01-20T19:18:22.152Z,20.40
2023-01-20T19:23:24.408Z,29.97
2023-01-20T19:28:26.772Z,20.70
2023-01-20T19:33:29.074Z,20.13
2023-01-20T19:38:31.525Z,17.50
2023-01-20T19:43:34.563Z,18.43
2023-01-20T19:48:37.412Z,17.93
2023-01-20T19:53:41.522Z,18.20
2023-01-20T19:58:45.326Z,18.17
2023-01-20T20:03:49.096Z,18.43
2023-01-20T20:08:52.346Z,19.10
2023-01-20T20:13:59.804Z,14.57
2023-01-20T20:19:02.590Z,14.67
2023-01-20T20:24:05.474Z,14.70
2023-01-20T20:29:08.663Z,15.83
2023-01-20T20:34:17.000Z,16.10
2023-01-20T20:39:19.751Z,15.60
2023-01-20T20:44:22.046Z,16.53
2023-01-20T20:49:24.376Z,17.47
2023-01-20T20:54:26.914Z,15.27
2023-01-20T20:59:29.180Z,15.97
2023-01-20T21:04:32.007Z,16.93
2023-01-20T21:09:34.915Z,15.93
2023-01-20T21:14:37.285Z,15.37
2023-01-20T21:19:39.693Z,16.00
2023-01-20T21:24:42.091Z,15.33
2023-01-20T21:29:44.497Z,16.03
2023-01-20T21:34:46.783Z,14.83
2023-01-20T21:39:49.085Z,15.87
2023-01-20T21:44:51.413Z,14.77
2023-01-20T21:50:12.430Z,16.23
2023-01-20T21:55:19.413Z,15.10
2023-01-20T22:00:22.118Z,15.17
2023-01-20T22:05:24.421Z,15.27
2023-01-20T22:10:26.812Z,13.60
2023-01-20T22:15:30.098Z,13.50
2023-01-20T22:20:32.381Z,14.00
2023-01-20T22:25:35.445Z,15.47
2023-01-20T22:30:37.900Z,14.20
2023-01-20T22:35:40.360Z,14.67
2023-01-20T22:40:42.668Z,14.40
2023-01-20T22:45:47.278Z,14.17
2023-01-20T22:50:50.541Z,13.87
2023-01-20T22:56:00.931Z,14.87
2023-01-20T23:01:04.494Z,13.40
2023-01-20T23:06:07.072Z,13.20
2023-01-20T23:11:14.579Z,15.23
2023-01-20T23:16:19.635Z,15.90
2023-01-20T23:21:22.573Z,13.87
2023-01-20T23:26:30.206Z,14.43
2023-01-20T23:31:33.632Z,13.50
2023-01-20T23:36:35.978Z,12.53
2023-01-20T23:41:38.323Z,12.40
2023-01-20T23:46:40.762Z,13.70
2023-01-20T23:51:43.066Z,12.53
2023-01-20T23:56:45.430Z,12.67
